createdAt,value
2023-05-24T00:02:16.581Z,7.30
2023-05-24T00:04:45.281Z,6.90
2023-05-24T00:07:12.716Z,6.65
2023-05-24T00:09:39.786Z,5.78
2023-05-24T00:12:07.019Z,6.68
2023-05-24T00:14:34.381Z,6.40
2023-05-24T00:17:01.581Z,6.20
2023-05-24T00:19:29.297Z,6.03
2023-05-24T00:21:56.605Z,6.47
2023-05-24T00:24:23.667Z,6.47
2023-05-24T00:26:51.253Z,7.28
2023-05-24T00:29:18.342Z,6.70
2023-05-24T00:31:45.414Z,6.60
2023-05-24T00:34:12.469Z,6.40
2023-05-24T00:36:39.517Z,6.82
2023-05-24T00:39:06.563Z,6.47
2023-05-24T00:41:33.831Z,6.90
2023-05-24T00:44:00.918Z,7.25
2023-05-24T00:46:32.432Z,6.72
2023-05-24T00:49:01.494Z,6.35
2023-05-24T00:51:28.757Z,6.53
2023-05-24T00:53:56.485Z,6.35
2023-05-24T00:56:23.825Z,6.78
2023-05-24T00:58:54.846Z,7.00
2023-05-24T01:01:26.186Z,6.13
2023-05-24T01:03:54.528Z,6.32
2023-05-24T01:06:23.621Z,6.43
2023-05-24T01:09:06.786Z,5.97
2023-05-24T01:12:02.500Z,7.57
2023-05-24T01:15:13.565Z,6.17
2023-05-24T01:18:17.257Z,6.20
2023-05-24T01:20:46.428Z,5.72
2023-05-24T01:23:48.315Z,6.30
2023-05-24T01:27:04.783Z,5.40
2023-05-24T01:29:33.869Z,6.05
2023-05-24T01:32:02.401Z,7.22
2023-05-24T01:34:29.575Z,6.95
2023-05-24T01:36:56.842Z,6.43
2023-05-24T01:39:28.427Z,7.32
2023-05-24T01:42:21.638Z,7.25
2023-05-24T01:45:14.365Z,6.97
2023-05-24T01:48:24.692Z,6.50
2023-05-24T01:51:00.268Z,7.60
2023-05-24T01:53:39.488Z,7.35
2023-05-24T01:56:07.687Z,6.85
2023-05-24T01:58:36.749Z,6.88
2023-05-24T02:01:03.850Z,7.32
2023-05-24T02:03:32.177Z,6.43
2023-05-24T02:05:59.261Z,6.82
2023-05-24T02:08:26.431Z,6.68
2023-05-24T02:10:53.528Z,6.53
2023-05-24T02:13:20.987Z,7.00
2023-05-24T02:15:48.120Z,7.00
2023-05-24T02:18:18.627Z,6.35
2023-05-24T02:20:46.084Z,6.57
2023-05-24T02:23:13.365Z,7.15
2023-05-24T02:25:40.452Z,7.45
2023-05-24T02:28:07.486Z,6.75
2023-05-24T02:30:34.531Z,7.00
2023-05-24T02:33:02.162Z,7.45
2023-05-24T02:35:29.331Z,6.93
2023-05-24T02:37:58.791Z,7.43
2023-05-24T02:40:26.334Z,6.38
2023-05-24T02:42:53.436Z,6.40
2023-05-24T02:45:20.633Z,6.72
2023-05-24T02:47:47.749Z,6.53
2023-05-24T02:50:14.841Z,6.72
2023-05-24T02:52:42.048Z,6.38
2023-05-24T02:55:09.687Z,6.40
2023-05-24T02:57:38.402Z,7.22
2023-05-24T03:00:09.622Z,7.53
2023-05-24T03:02:38.865Z,7.45
2023-05-24T03:05:06.836Z,7.63
2023-05-24T03:07:34.028Z,7.15
2023-05-24T03:10:01.144Z,7.18
2023-05-24T03:12:28.187Z,7.55
2023-05-24T03:14:55.248Z,7.53
2023-05-24T03:17:22.326Z,7.38
2023-05-24T03:19:49.408Z,6.32
2023-05-24T03:22:16.502Z,7.38
2023-05-24T03:24:43.577Z,6.88
2023-05-24T03:27:10.690Z,7.68
2023-05-24T03:29:37.911Z,7.18
2023-05-24T03:32:05.586Z,7.05
2023-05-24T03:34:32.715Z,7.03
2023-05-24T03:36:59.792Z,6.90
2023-05-24T03:39:26.854Z,7.32
2023-05-24T03:41:53.892Z,7.47
2023-05-24T03:44:21.072Z,7.22
2023-05-24T03:46:48.146Z,7.55
2023-05-24T03:49:15.316Z,7.40
2023-05-24T03:51:42.324Z,7.65
2023-05-24T03:54:09.370Z,7.70
2023-05-24T03:56:37.855Z,7.32
2023-05-24T03:59:04.964Z,7.20
2023-05-24T04:01:34.560Z,7.50
2023-05-24T04:04:03.629Z,8.20
2023-05-24T04:06:31.115Z,7.13
2023-05-24T04:08:59.831Z,7.50
2023-05-24T04:11:30.178Z,7.22
2023-05-24T04:14:01.603Z,6.75
2023-05-24T04:16:29.009Z,6.68
2023-05-24T04:18:56.769Z,7.07
2023-05-24T04:21:24.057Z,7.03
2023-05-24T04:23:51.165Z,7.35
2023-05-24T04:26:18.465Z,7.80
2023-05-24T04:28:48.783Z,7.28
2023-05-24T04:31:16.609Z,6.72
2023-05-24T04:33:43.737Z,6.75
2023-05-24T04:36:11.742Z,7.25
2023-05-24T04:38:41.044Z,6.97
2023-05-24T04:41:08.233Z,6.45
2023-05-24T04:43:35.637Z,6.30
2023-05-24T04:46:02.943Z,6.80
2023-05-24T04:48:30.460Z,6.60
2023-05-24T04:50:58.580Z,6.68
2023-05-24T04:53:25.869Z,5.85
2023-05-24T04:55:53.216Z,6.55
2023-05-24T04:58:20.338Z,5.88
2023-05-24T05:00:47.489Z,6.63
2023-05-24T05:03:14.690Z,7.15
2023-05-24T05:05:41.865Z,6.13
2023-05-24T05:08:09.691Z,6.03
2023-05-24T05:10:37.302Z,6.50
2023-05-24T05:13:04.739Z,6.22
2023-05-24T05:15:32.779Z,5.80
2023-05-24T05:18:00.384Z,6.20
2023-05-24T05:20:27.575Z,6.50
2023-05-24T05:22:54.785Z,8.00
2023-05-24T05:25:22.141Z,6.45
2023-05-24T05:27:49.209Z,6.63
2023-05-24T05:30:16.502Z,5.90
2023-05-24T05:32:43.672Z,5.82
2023-05-24T05:35:10.880Z,5.75
2023-05-24T05:37:38.032Z,6.65
2023-05-24T05:40:05.717Z,6.53
2023-05-24T05:42:32.790Z,6.03
2023-05-24T05:44:59.967Z,5.95
2023-05-24T05:47:27.128Z,5.63
2023-05-24T05:49:54.350Z,5.70
2023-05-24T05:52:21.469Z,5.88
2023-05-24T05:54:48.525Z,5.88
2023-05-24T05:57:16.385Z,5.38
2023-05-24T05:59:43.515Z,6.43
2023-05-24T06:02:12.872Z,5.70
2023-05-24T06:04:40.014Z,6.65
2023-05-24T06:07:07.111Z,6.13
2023-05-24T06:09:34.191Z,5.40
2023-05-24T06:12:01.315Z,6.03
2023-05-24T06:14:28.463Z,5.63
2023-05-24T06:16:56.834Z,6.05
2023-05-24T06:19:25.076Z,4.72
2023-05-24T06:21:52.193Z,5.38
2023-05-24T06:24:22.835Z,5.20
2023-05-24T06:26:52.434Z,6.22
2023-05-24T06:29:21.052Z,5.53
2023-05-24T06:31:51.699Z,5.40
2023-05-24T06:34:22.399Z,6.05
2023-05-24T06:36:51.046Z,5.15
2023-05-24T06:39:19.004Z,5.50
2023-05-24T06:41:47.202Z,5.40
2023-05-24T06:44:14.727Z,5.30
2023-05-24T06:46:42.010Z,5.13
2023-05-24T06:49:09.137Z,5.50
2023-05-24T06:51:38.074Z,5.35
2023-05-24T06:54:05.211Z,5.28
2023-05-24T06:56:33.116Z,5.40
2023-05-24T06:59:00.756Z,5.65
2023-05-24T07:01:29.345Z,5.35
2023-05-24T07:03:56.571Z,4.85
2023-05-24T07:06:23.646Z,5.28
2023-05-24T07:08:50.816Z,4.78
2023-05-24T07:11:18.045Z,6.78
2023-05-24T07:13:45.154Z,8.63
2023-05-24T07:16:12.179Z,6.43
2023-05-24T07:18:41.763Z,5.18
2023-05-24T07:21:09.114Z,5.57
2023-05-24T07:23:37.108Z,5.78
2023-05-24T07:26:05.586Z,5.18
2023-05-24T07:28:32.941Z,5.65
2023-05-24T07:31:00.485Z,4.80
2023-05-24T07:33:27.682Z,4.82
2023-05-24T07:35:54.895Z,5.78
2023-05-24T07:38:21.999Z,5.40
2023-05-24T07:40:49.114Z,5.13
2023-05-24T07:43:16.356Z,4.97
2023-05-24T07:45:43.612Z,5.03
2023-05-24T07:48:10.986Z,5.28
2023-05-24T07:50:38.648Z,5.20
2023-05-24T07:53:06.374Z,5.13
2023-05-24T07:55:33.745Z,5.10
2023-05-24T07:58:00.851Z,4.22
2023-05-24T08:00:27.897Z,4.47
2023-05-24T08:02:55.038Z,4.50
2023-05-24T08:05:22.197Z,4.15
2023-05-24T08:07:52.160Z,4.60
2023-05-24T08:10:19.394Z,4.72
2023-05-24T08:12:46.829Z,4.82
2023-05-24T08:15:13.899Z,4.70
2023-05-24T08:17:41.364Z,4.80
2023-05-24T08:20:10.111Z,4.57
2023-05-24T08:22:37.876Z,5.03
2023-05-24T08:25:06.858Z,4.13
2023-05-24T08:27:34.066Z,4.03
2023-05-24T08:30:01.850Z,4.82
2023-05-24T08:32:28.958Z,4.25
2023-05-24T08:35:06.690Z,4.35
2023-05-24T08:37:38.125Z,4.40
2023-05-24T08:40:05.934Z,4.30
2023-05-24T08:42:33.502Z,4.30
2023-05-24T08:45:15.282Z,5.00
2023-05-24T08:47:42.663Z,4.10
2023-05-24T08:50:11.162Z,4.60
2023-05-24T08:52:39.833Z,4.38
2023-05-24T08:55:08.706Z,4.40
2023-05-24T08:57:39.904Z,4.97
2023-05-24T09:00:12.844Z,4.93
2023-05-24T09:02:42.350Z,5.10
2023-05-24T09:05:16.868Z,5.18
2023-05-24T09:07:45.637Z,4.97
2023-05-24T09:10:12.909Z,4.20
2023-05-24T09:12:45.730Z,4.28
2023-05-24T09:15:12.951Z,4.20
2023-05-24T09:17:40.755Z,3.70
2023-05-24T09:20:10.891Z,4.53
2023-05-24T09:22:42.097Z,5.00
2023-05-24T09:25:13.828Z,4.45
2023-05-24T09:27:41.635Z,4.57
2023-05-24T09:30:10.882Z,4.15
2023-05-24T09:32:38.333Z,5.18
2023-05-24T09:35:10.011Z,4.50
2023-05-24T09:37:40.855Z,4.80
2023-05-24T09:40:20.271Z,4.57
2023-05-24T09:42:51.487Z,4.90
2023-05-24T09:45:18.769Z,4.25
2023-05-24T09:47:46.251Z,5.43
2023-05-24T09:50:15.771Z,4.60
2023-05-24T09:52:43.570Z,4.40
2023-05-24T09:55:17.025Z,4.80
2023-05-24T09:58:12.825Z,4.43
2023-05-24T10:00:41.643Z,4.70
2023-05-24T10:03:12.239Z,5.40
2023-05-24T10:05:44.813Z,5.40
2023-05-24T10:08:12.710Z,4.50
2023-05-24T10:10:39.831Z,4.82
2023-05-24T10:13:07.766Z,4.90
2023-05-24T10:15:34.976Z,7.10
2023-05-24T10:18:10.408Z,8.50
2023-05-24T10:20:38.728Z,7.07
2023-05-24T10:23:09.994Z,8.82
2023-05-24T10:25:44.772Z,6.22
2023-05-24T10:28:15.281Z,5.80
2023-05-24T10:31:10.705Z,5.65
2023-05-24T10:33:39.209Z,5.65
2023-05-24T10:36:09.998Z,5.85
2023-05-24T10:38:42.057Z,6.00
2023-05-24T10:41:09.748Z,6.13
2023-05-24T10:43:37.993Z,7.13
2023-05-24T10:46:08.887Z,6.47
2023-05-24T10:48:40.827Z,6.03
2023-05-24T10:51:34.814Z,6.13
2023-05-24T10:54:19.744Z,5.35
2023-05-24T10:56:49.997Z,5.80
2023-05-24T10:59:45.435Z,5.70
2023-05-24T11:02:16.797Z,6.10
2023-05-24T11:04:47.175Z,5.07
2023-05-24T11:07:15.859Z,6.03
2023-05-24T11:09:46.823Z,6.10
2023-05-24T11:12:19.271Z,6.30
2023-05-24T11:14:52.427Z,6.78
2023-05-24T11:17:24.023Z,6.05
2023-05-24T11:19:54.312Z,6.15
2023-05-24T11:22:24.396Z,6.70
2023-05-24T11:24:53.316Z,5.85
2023-05-24T11:27:20.541Z,5.32
2023-05-24T11:29:48.905Z,6.38
2023-05-24T11:32:19.273Z,6.00
2023-05-24T11:34:50.056Z,5.70
2023-05-24T11:37:18.617Z,5.63
2023-05-24T11:39:54.138Z,5.75
2023-05-24T11:42:23.423Z,6.57
2023-05-24T11:44:50.776Z,6.70
2023-05-24T11:47:22.101Z,6.55
2023-05-24T11:49:52.694Z,6.00
2023-05-24T11:52:20.161Z,6.03
2023-05-24T11:54:47.511Z,5.80
2023-05-24T11:57:14.785Z,5.97
2023-05-24T11:59:42.013Z,6.45
2023-05-24T12:02:09.310Z,6.60
2023-05-24T12:04:36.602Z,6.05
2023-05-24T12:07:03.800Z,5.78
2023-05-24T12:09:30.883Z,5.78
2023-05-24T12:11:58.700Z,6.40
2023-05-24T12:14:33.737Z,5.75
2023-05-24T12:17:01.373Z,6.60
2023-05-24T12:19:35.778Z,6.15
2023-05-24T12:22:07.513Z,6.30
2023-05-24T12:24:35.466Z,5.80
2023-05-24T12:27:08.336Z,5.80
2023-05-24T12:29:45.686Z,6.60
2023-05-24T12:32:14.335Z,6.00
2023-05-24T12:34:44.380Z,5.97
2023-05-24T12:37:13.375Z,5.78
2023-05-24T12:39:43.586Z,5.70
2023-05-24T12:42:13.173Z,6.25
2023-05-24T12:44:40.794Z,5.78
2023-05-24T12:47:09.196Z,5.72
2023-05-24T12:49:36.768Z,6.18
2023-05-24T12:52:04.596Z,5.60
2023-05-24T12:54:32.271Z,5.70
2023-05-24T12:57:00.566Z,7.68
2023-05-24T12:59:28.726Z,6.60
2023-05-24T13:01:56.250Z,5.53
2023-05-24T13:04:27.200Z,6.30
2023-05-24T13:06:54.626Z,6.28
2023-05-24T13:09:23.563Z,6.22
2023-05-24T13:11:52.539Z,7.05
2023-05-24T13:14:20.484Z,6.35
2023-05-24T13:16:48.428Z,6.15
2023-05-24T13:19:16.600Z,6.35
2023-05-24T13:21:44.067Z,5.68
2023-05-24T13:24:12.545Z,6.72
2023-05-24T13:26:39.606Z,5.95
2023-05-24T13:29:32.223Z,7.25
2023-05-24T13:31:54.259Z,6.57
2023-05-24T13:34:21.804Z,6.13
2023-05-24T13:36:48.829Z,6.00
2023-05-24T13:39:16.734Z,5.70
2023-05-24T13:41:44.656Z,5.68
2023-05-24T13:44:13.580Z,5.47
2023-05-24T13:46:41.553Z,5.78
2023-05-24T13:49:10.063Z,5.68
2023-05-24T13:51:38.560Z,5.63
2023-05-24T13:54:07.519Z,6.28
2023-05-24T13:56:35.713Z,5.72
2023-05-24T13:59:04.536Z,6.50
2023-05-24T14:01:32.912Z,6.45
2023-05-24T14:04:02.584Z,5.55
2023-05-24T14:06:29.869Z,5.93
2023-05-24T14:08:57.219Z,6.25
2023-05-24T14:11:25.490Z,6.05
2023-05-24T14:16:25.212Z,7.30
2023-05-24T14:18:52.501Z,7.82
2023-05-24T14:21:21.811Z,6.60
2023-05-24T14:23:49.843Z,7.60
2023-05-24T14:26:18.580Z,6.60
2023-05-24T14:28:45.701Z,6.65
2023-05-24T14:31:12.805Z,6.57
2023-05-24T14:33:39.995Z,5.50
2023-05-24T14:36:07.713Z,5.07
2023-05-24T14:38:34.853Z,5.13
2023-05-24T14:41:02.194Z,5.43
2023-05-24T14:43:29.306Z,5.22
2023-05-24T14:45:56.608Z,4.53
2023-05-24T14:48:23.754Z,5.15
2023-05-24T14:50:50.802Z,5.32
2023-05-24T14:53:17.885Z,6.18
2023-05-24T14:55:45.347Z,5.65
2023-05-24T14:58:12.905Z,6.35
2023-05-24T15:00:41.864Z,6.40
2023-05-24T15:03:09.419Z,6.55
2023-05-24T15:05:37.149Z,6.30
2023-05-24T15:08:05.900Z,6.43
2023-05-24T15:10:33.398Z,6.38
2023-05-24T15:13:01.567Z,5.82
2023-05-24T15:15:29.232Z,9.77
2023-05-24T15:17:57.722Z,9.25
2023-05-24T15:20:26.063Z,7.68
2023-05-24T15:22:53.629Z,7.70
2023-05-24T15:25:21.049Z,7.20
2023-05-24T15:27:48.459Z,7.20
2023-05-24T15:30:17.481Z,7.18
2023-05-24T15:32:46.570Z,8.10
2023-05-24T15:35:13.799Z,8.05
2023-05-24T15:37:42.755Z,8.85
2023-05-24T15:40:11.210Z,9.75
2023-05-24T15:42:38.437Z,10.23
2023-05-24T15:45:06.443Z,10.05
2023-05-24T15:47:39.517Z,9.70
2023-05-24T15:50:10.442Z,8.05
2023-05-24T15:52:37.617Z,7.90
2023-05-24T15:55:05.827Z,8.13
2023-05-24T15:57:32.898Z,8.25
2023-05-24T16:00:01.315Z,8.82
2023-05-24T16:02:30.288Z,11.55
2023-05-24T16:04:57.591Z,11.88
2023-05-24T16:07:24.770Z,10.57
2023-05-24T16:09:51.863Z,9.93
2023-05-24T16:12:19.154Z,11.20
2023-05-24T16:14:46.596Z,10.77
2023-05-24T16:17:15.052Z,10.23
2023-05-24T16:19:42.298Z,11.02
2023-05-24T16:22:09.392Z,11.90
2023-05-24T16:24:36.444Z,12.45
2023-05-24T16:27:03.530Z,12.80
2023-05-24T16:29:30.581Z,11.20
2023-05-24T16:31:57.698Z,11.38
2023-05-24T16:34:25.645Z,11.20
2023-05-24T16:36:52.815Z,10.88
2023-05-24T16:39:20.019Z,11.73
2023-05-24T16:41:47.753Z,12.02
2023-05-24T16:44:18.057Z,12.13
2023-05-24T16:46:46.650Z,11.70
2023-05-24T16:49:13.931Z,10.65
2023-05-24T16:51:41.075Z,10.35
2023-05-24T16:54:09.249Z,10.35
2023-05-24T16:56:38.149Z,10.77
2023-05-24T16:59:05.595Z,10.35
2023-05-24T17:01:32.886Z,11.25
2023-05-24T17:04:00.419Z,10.43
2023-05-24T17:06:27.745Z,10.50
2023-05-24T17:08:54.817Z,10.25
2023-05-24T17:11:23.120Z,10.68
2023-05-24T17:13:51.541Z,10.38
2023-05-24T17:16:18.938Z,9.38
2023-05-24T17:18:46.328Z,9.35
2023-05-24T17:21:13.857Z,9.23
2023-05-24T17:23:41.458Z,9.68
2023-05-24T17:26:08.922Z,9.93
2023-05-24T17:28:36.483Z,10.65
2023-05-24T17:31:03.777Z,10.57
2023-05-24T17:33:31.744Z,10.93
2023-05-24T17:36:02.681Z,11.05
2023-05-24T17:38:33.029Z,9.93
2023-05-24T17:41:00.341Z,10.00
2023-05-24T17:43:32.865Z,9.85
2023-05-24T17:46:08.589Z,10.98
2023-05-24T17:48:41.156Z,10.68
2023-05-24T17:51:10.389Z,10.50
2023-05-24T17:53:38.468Z,10.95
2023-05-24T17:56:06.520Z,10.30
2023-05-24T17:58:36.934Z,10.35
2023-05-24T18:01:10.086Z,10.10
2023-05-24T18:03:39.075Z,9.90
2023-05-24T18:06:07.452Z,8.95
2023-05-24T18:08:37.964Z,9.85
2023-05-24T18:11:08.645Z,10.00
2023-05-24T18:13:42.019Z,9.35
2023-05-24T18:16:11.409Z,10.05
2023-05-24T18:18:38.865Z,8.85
2023-05-24T18:21:06.389Z,9.13
2023-05-24T18:23:37.569Z,9.50
2023-05-24T18:26:09.588Z,10.00
2023-05-24T18:28:38.162Z,10.25
2023-05-24T18:31:14.585Z,9.27
2023-05-24T18:33:42.116Z,9.55
2023-05-24T18:36:09.444Z,10.38
2023-05-24T18:38:37.258Z,10.15
2023-05-24T18:41:06.457Z,10.00
2023-05-24T18:43:33.843Z,10.18
2023-05-24T18:46:01.324Z,9.32
2023-05-24T18:48:28.369Z,10.50
2023-05-24T18:50:55.413Z,10.50
2023-05-24T18:53:22.457Z,10.07
2023-05-24T18:55:49.593Z,10.30
2023-05-24T18:58:16.681Z,9.20
2023-05-24T19:00:43.815Z,9.43
2023-05-24T19:03:14.040Z,10.75
2023-05-24T19:05:43.508Z,16.52
2023-05-24T19:08:11.463Z,10.43
2023-05-24T19:10:38.610Z,10.65
2023-05-24T19:13:06.583Z,10.60
2023-05-24T19:15:36.695Z,10.70
2023-05-24T19:18:04.340Z,11.35
2023-05-24T19:20:31.522Z,10.05
2023-05-24T19:22:59.807Z,10.88
2023-05-24T19:25:27.063Z,11.00
2023-05-24T19:28:00.035Z,12.27
2023-05-24T19:30:27.883Z,12.10
2023-05-24T19:32:55.064Z,12.02
2023-05-24T19:35:22.340Z,11.68
2023-05-24T19:37:49.493Z,11.30
2023-05-24T19:40:16.689Z,11.45
2023-05-24T19:42:43.736Z,11.05
2023-05-24T19:45:12.103Z,10.43
2023-05-24T19:47:39.818Z,10.98
2023-05-24T19:50:08.026Z,10.63
2023-05-24T19:52:35.069Z,10.45
2023-05-24T19:55:02.195Z,9.75
2023-05-24T19:57:29.236Z,10.57
2023-05-24T19:59:56.377Z,10.27
2023-05-24T20:02:23.514Z,11.07
2023-05-24T20:04:50.550Z,10.20
2023-05-24T20:07:17.605Z,11.30
2023-05-24T20:09:44.739Z,11.18
2023-05-24T20:12:12.017Z,10.57
2023-05-24T20:14:39.104Z,10.38
2023-05-24T20:17:06.143Z,10.73
2023-05-24T20:19:33.171Z,12.60
2023-05-24T20:22:00.351Z,11.90
2023-05-24T20:24:27.449Z,10.55
2023-05-24T20:26:54.514Z,11.32
2023-05-24T20:29:21.630Z,11.25
2023-05-24T20:31:48.709Z,10.55
2023-05-24T20:34:15.863Z,11.23
2023-05-24T20:36:43.910Z,11.63
2023-05-24T20:39:11.429Z,11.68
2023-05-24T20:41:38.498Z,12.98
2023-05-24T20:44:05.761Z,11.77
2023-05-24T20:46:32.869Z,12.18
2023-05-24T20:48:59.999Z,12.23
2023-05-24T20:51:27.099Z,11.63
2023-05-24T20:53:54.206Z,11.20
2023-05-24T20:56:23.281Z,11.85
2023-05-24T20:58:53.079Z,11.63
2023-05-24T21:01:21.188Z,11.68
2023-05-24T21:03:48.485Z,12.48
2023-05-24T21:06:15.647Z,12.55
2023-05-24T21:08:43.589Z,12.38
2023-05-24T21:11:11.188Z,12.75
2023-05-24T21:13:38.486Z,11.65
2023-05-24T21:16:05.852Z,12.38
2023-05-24T21:18:33.524Z,12.73
2023-05-24T21:21:00.832Z,12.15
2023-05-24T21:23:27.908Z,12.25
2023-05-24T21:25:54.953Z,11.68
2023-05-24T21:28:22.049Z,11.40
2023-05-24T21:30:49.174Z,12.93
2023-05-24T21:33:16.872Z,11.52
2023-05-24T21:35:44.408Z,12.63
2023-05-24T21:38:11.644Z,12.27
2023-05-24T21:40:38.705Z,12.40
2023-05-24T21:43:05.850Z,12.23
2023-05-24T21:45:32.902Z,12.25
2023-05-24T21:48:00.056Z,11.63
2023-05-24T21:50:27.169Z,11.23
2023-05-24T21:52:54.235Z,13.00
2023-05-24T21:55:21.275Z,11.35
2023-05-24T21:57:48.457Z,12.02
2023-05-24T22:00:17.167Z,13.07
2023-05-24T22:02:44.389Z,14.13
2023-05-24T22:05:11.649Z,11.45
2023-05-24T22:07:38.805Z,12.02
2023-05-24T22:10:07.437Z,12.35
2023-05-24T22:12:35.190Z,12.32
2023-05-24T22:15:02.676Z,11.52
2023-05-24T22:17:32.672Z,11.18
2023-05-24T22:20:01.448Z,12.18
2023-05-24T22:22:29.902Z,12.07
2023-05-24T22:24:57.093Z,11.13
2023-05-24T22:27:24.161Z,12.98
2023-05-24T22:29:51.409Z,12.65
2023-05-24T22:32:18.646Z,12.48
2023-05-24T22:34:46.042Z,11.65
2023-05-24T22:37:13.306Z,12.07
2023-05-24T22:39:40.434Z,12.60
2023-05-24T22:42:07.597Z,12.60
2023-05-24T22:44:34.709Z,12.18
2023-05-24T22:47:02.153Z,13.73
2023-05-24T22:49:34.079Z,13.18
2023-05-24T22:52:01.429Z,13.23
2023-05-24T22:54:28.473Z,13.38
2023-05-24T22:56:56.809Z,13.07
2023-05-24T22:59:23.924Z,12.43
2023-05-24T23:01:51.297Z,13.75
2023-05-24T23:04:21.275Z,13.43
2023-05-24T23:06:52.872Z,13.45
2023-05-24T23:09:34.931Z,13.63
2023-05-24T23:12:07.917Z,13.65
2023-05-24T23:14:39.941Z,13.23
2023-05-24T23:17:14.406Z,14.60
2023-05-24T23:19:42.838Z,14.77
2023-05-24T23:22:11.986Z,13.48
2023-05-24T23:24:42.685Z,15.38
2023-05-24T23:27:10.182Z,14.75
2023-05-24T23:29:39.166Z,14.38
2023-05-24T23:32:07.985Z,14.43
2023-05-24T23:34:35.217Z,13.85
2023-05-24T23:37:03.272Z,14.43
2023-05-24T23:39:30.590Z,14.43
2023-05-24T23:41:57.678Z,14.57
2023-05-24T23:44:25.777Z,15.43
2023-05-24T23:46:53.945Z,15.40
2023-05-24T23:49:21.099Z,15.90
2023-05-24T23:51:48.183Z,15.38
2023-05-24T23:54:15.803Z,15.30
2023-05-24T23:56:42.911Z,15.38
2023-05-24T23:59:10.531Z,16.83
